Ocoee, FL (34761)

10:44 AM EDT on September 04, 2015 (GMT -0400)
Lake Rose | | Change Station
CLOSE
Current Station
Personal Weather Station
Location: Orlando, FL
Elevation: 118 ft
Nearby Weather Stations

Elev 118 ft 28.54 °N, 81.50 °W | Updated 1 second ago

Partly Cloudy
Partly Cloudy
81.7 °F
Feels Like 89 °F
N
0.0
Wind Variable Wind from North
Gusts 0.0 mph

Today
High -- | Low -- °F
--% Chance of Precip.
Yesterday
High -- | Low -- °F
Precip. -- in
7:05 AM 7:44 PM
Waning Gibbous, 59% visible
Pressure 30.00 in
Visibility 10.0 miles
Clouds Clear
Heat Index 89 °F
Dew Point 76 °F
Humidity 84%
Rainfall 0.00 in
Snow Depth Not available.
UV 5 out of 12
Pollen 6.90 out of 12
Air Quality Not available.
Flu Activity Not available.
METAR KORL 041353Z 31005KT 10SM CLR 29/24 A2999 RMK AO2 SLP157 T02940244
Pressure 30.00 in
Visibility 10.0 miles
Clouds Clear
Heat Index 89 °F
Dew Point 76 °F
Humidity 84%
Rainfall 0.00 in
Snow Depth Not available.
UV 5 out of 12
Pollen 6.90 out of 12
Air Quality Not available.
Flu Activity Not available.
METAR KORL 041353Z 31005KT 10SM CLR 29/24 A2999 RMK AO2 SLP157 T02940244
Nowcast | as of 9:50 am EDT on September 4, 2015

Mid to high level clouds producing considerable cloud cover across north central Florida will continue to move southward through late morning. These clouds will lead to a slower increase in temperatures across this area through late morning and may delay storm development into this afternoon if sufficient breaks in the cloud cover do not occur. However light rain or sprinkles may occur with this cloud deck through late morning...mainly across north Volusia County. Farther south of lake and Volusia counties where more sunshine is present... expect temperatures to quickly warm into the upper 80s to low 90s toward noon. Additional details...including graphics are available online at: http://www.Srh.NOAA.Gov/mlb/blog.Php

×

10-Day Weather Forecast

×

Almanac

Astronomy

Sep. 04, 2015 Rise Set
Actual Time
Civil Twilight
Nautical Twilight
Astronomical Twilight
Moon
Length of Visible Light
Length of Day
Tomorrow will be .
, % of the Moon is Illuminated

Today's Extremes

State Highs State Lows

Community

WunderPhotos

Upload Photos

1,852,187 photos uploaded!

WunderBlogs® & News

Nearby

Air Quality

  Air Quality AQ Index Pollutant
Not available.

Snow Depth

Station Depth Elevation

Earthquake Activity

City Distance Mag. Time & Date
Minimum magnitude displayed is 2.5.

Coastal Water Temperatures

Place Temperature

Stations

Nearby Weather Stations

Station Location Temp. Windchill Dew Point Humidity Wind Precip. Elev Updated Type